Time,TemperatureF,DewpointF,PressureIn,WindDirection,WindDirectionDegrees,WindSpeedMPH,WindSpeedGustMPH,Humidity,HourlyPrecipIn,Conditions,Clouds,dailyrainin,SoftwareType,DateUTC
2013-05-04 00:00:00,70.5,56.8,29.79,North,-999,0.0,0.0,62,0.00,,,-99.99,FreeWX 2.05,2013-05-04 04:00:00,
2013-05-04 00:10:00,70.5,56.8,29.79,North,-999,0.0,3.1,62,0.00,,,-99.99,FreeWX 2.05,2013-05-04 04:10:00,
2013-05-04 00:20:00,70.3,57.2,29.79,North,-999,0.0,0.0,63,0.00,,,-99.99,FreeWX 2.05,2013-05-04 04:20:00,
2013-05-04 00:30:00,70.3,57.2,29.79,North,-999,0.0,0.0,63,0.00,,,-99.99,FreeWX 2.05,2013-05-04 04:30:00,
2013-05-04 00:40:00,70.2,57.0,29.79,North,-999,0.0,0.0,63,0.00,,,-99.99,FreeWX 2.05,2013-05-04 04:40:00,
2013-05-04 00:50:00,70.2,57.0,29.79,North,-999,0.0,0.0,63,0.00,,,-99.99,FreeWX 2.05,2013-05-04 04:50:00,
2013-05-04 01:00:00,70.0,56.8,29.79,North,-999,0.0,0.0,63,0.00,,,-99.99,FreeWX 2.05,2013-05-04 05:00:00,
2013-05-04 01:10:00,69.8,56.7,29.79,North,-999,0.0,0.0,63,0.00,,,-99.99,FreeWX 2.05,2013-05-04 05:10:00,
2013-05-04 01:20:00,69.8,56.7,29.79,North,-999,0.0,0.0,63,0.00,,,-99.99,FreeWX 2.05,2013-05-04 05:20:00,
2013-05-04 01:30:00,69.6,56.5,29.79,North,-999,0.0,0.0,63,0.00,,,-99.99,FreeWX 2.05,2013-05-04 05:30:00,
2013-05-04 01:40:00,69.4,56.3,29.76,North,-999,0.0,0.0,63,0.00,,,-99.99,FreeWX 2.05,2013-05-04 05:40:00,
2013-05-04 01:50:00,69.4,56.3,29.76,North,-999,0.0,2.7,63,0.00,,,-99.99,FreeWX 2.05,2013-05-04 05:50:00,
2013-05-04 02:00:00,69.3,56.5,29.76,North,-999,0.0,0.0,64,0.00,,,-99.99,FreeWX 2.05,2013-05-04 06:00:00,
2013-05-04 02:10:00,69.1,56.3,29.76,North,-999,0.0,0.0,64,0.00,,,-99.99,FreeWX 2.05,2013-05-04 06:10:00,
2013-05-04 02:20:00,69.1,56.3,29.76,North,-999,0.0,0.0,64,0.00,,,-99.99,FreeWX 2.05,2013-05-04 06:20:00,
2013-05-04 02:30:00,68.9,56.1,29.76,North,-999,0.0,0.0,64,0.00,,,-99.99,FreeWX 2.05,2013-05-04 06:30:00,
2013-05-04 02:40:00,68.9,56.7,29.76,North,-999,0.0,0.0,65,0.00,,,-99.99,FreeWX 2.05,2013-05-04 06:40:00,
2013-05-04 02:50:00,68.7,56.8,29.74,North,-999,0.0,3.6,66,0.00,,,-99.99,FreeWX 2.05,2013-05-04 06:50:00,
2013-05-04 03:00:00,68.9,57.9,29.74,North,-999,0.0,2.7,68,0.00,,,-99.99,FreeWX 2.05,2013-05-04 07:00:00,
2013-05-04 03:10:00,69.1,58.1,29.74,North,-999,0.0,3.1,68,0.00,,,-99.99,FreeWX 2.05,2013-05-04 07:10:00,
2013-05-04 03:20:00,69.1,58.1,29.74,North,-999,0.0,0.0,68,0.00,,,-99.99,FreeWX 2.05,2013-05-04 07:20:00,
2013-05-04 03:30:00,68.9,57.9,29.74,North,-999,0.0,0.0,68,0.00,,,-99.99,FreeWX 2.05,2013-05-04 07:30:00,
2013-05-04 03:40:00,68.7,57.7,29.74,North,-999,0.0,0.0,68,0.00,,,-99.99,FreeWX 2.05,2013-05-04 07:40:00,
2013-05-04 03:50:00,68.5,57.6,29.74,North,-999,0.0,0.0,68,0.00,,,-99.99,FreeWX 2.05,2013-05-04 07:50:00,
2013-05-04 04:00:00,68.4,57.7,29.74,North,-999,0.0,0.0,69,0.00,,,-99.99,FreeWX 2.05,2013-05-04 08:00:00,
2013-05-04 04:10:00,68.2,57.6,29.74,North,-999,0.0,0.0,69,0.00,,,-99.99,FreeWX 2.05,2013-05-04 08:10:00,
2013-05-04 04:20:00,68.0,57.4,29.71,North,-999,0.0,0.0,69,0.00,,,-99.99,FreeWX 2.05,2013-05-04 08:20:00,
2013-05-04 04:30:00,67.8,57.2,29.71,North,-999,0.0,0.0,69,0.00,,,-99.99,FreeWX 2.05,2013-05-04 08:30:00,
2013-05-04 04:40:00,68.0,57.9,29.71,North,-999,0.0,0.0,70,0.00,,,-99.99,FreeWX 2.05,2013-05-04 08:40:00,
2013-05-04 04:50:00,68.0,57.9,29.74,North,-999,0.0,0.0,70,0.00,,,-99.99,FreeWX 2.05,2013-05-04 08:50:00,
2013-05-04 05:00:00,68.0,57.9,29.74,North,-999,0.0,0.0,70,0.00,,,-99.99,FreeWX 2.05,2013-05-04 09:00:00,
2013-05-04 05:10:00,68.2,58.1,29.74,North,-999,0.0,0.0,70,0.00,,,-99.99,FreeWX 2.05,2013-05-04 09:10:00,
2013-05-04 05:20:00,68.4,58.1,29.74,North,-999,0.0,3.6,70,0.00,,,-99.99,FreeWX 2.05,2013-05-04 09:20:00,
2013-05-04 05:30:00,68.5,58.8,29.74,North,-999,0.0,2.7,71,0.00,,,-99.99,FreeWX 2.05,2013-05-04 09:30:00,
2013-05-04 05:40:00,68.5,58.8,29.74,North,-999,0.0,0.0,71,0.00,,,-99.99,FreeWX 2.05,2013-05-04 09:40:00,
2013-05-04 05:50:00,68.5,58.8,29.74,North,-999,0.0,0.0,71,0.00,,,-99.99,FreeWX 2.05,2013-05-04 09:50:00,
2013-05-04 06:00:00,68.5,58.8,29.74,North,-999,0.0,0.0,71,0.00,,,-99.99,FreeWX 2.05,2013-05-04 10:00:00,
2013-05-04 06:10:00,68.4,58.6,29.74,North,-999,0.0,0.0,71,0.00,,,-99.99,FreeWX 2.05,2013-05-04 10:10:00,
2013-05-04 06:20:00,68.2,58.5,29.74,North,-999,0.0,0.0,71,0.00,,,-99.99,FreeWX 2.05,2013-05-04 10:20:00,
2013-05-04 06:30:00,68.0,58.3,29.74,North,-999,0.0,0.0,71,0.00,,,-99.99,FreeWX 2.05,2013-05-04 10:30:00,
2013-05-04 06:40:00,68.2,58.8,29.74,North,-999,0.0,0.0,72,0.00,,,-99.99,FreeWX 2.05,2013-05-04 10:40:00,
2013-05-04 06:50:00,68.2,58.8,29.74,North,-999,0.0,0.0,72,0.00,,,-99.99,FreeWX 2.05,2013-05-04 10:50:00,
2013-05-04 07:00:00,68.4,59.0,29.74,North,-999,0.0,0.0,72,0.00,,,-99.99,FreeWX 2.05,2013-05-04 11:00:00,
2013-05-04 07:10:00,68.4,59.0,29.74,North,-999,0.0,0.0,72,0.00,,,-99.99,FreeWX 2.05,2013-05-04 11:10:00,
2013-05-04 07:20:00,68.4,59.4,29.76,North,-999,0.0,0.0,73,0.00,,,-99.99,FreeWX 2.05,2013-05-04 11:20:00,
2013-05-04 07:30:00,68.5,59.5,29.76,North,-999,0.0,0.0,73,0.00,,,-99.99,FreeWX 2.05,2013-05-04 11:30:00,
2013-05-04 07:40:00,68.9,59.9,29.76,North,-999,0.0,0.0,73,0.00,,,-99.99,FreeWX 2.05,2013-05-04 11:40:00,
2013-05-04 07:50:00,69.3,60.6,29.76,North,-999,0.0,0.0,74,0.00,,,-99.99,FreeWX 2.05,2013-05-04 11:50:00,
2013-05-04 08:10:00,69.8,61.2,29.76,North,-999,0.0,0.0,74,0.00,,,-99.99,FreeWX 2.05,2013-05-04 12:10:00,
2013-05-04 08:20:00,70.2,61.9,29.76,North,-999,0.0,0.0,75,0.00,,,-99.99,FreeWX 2.05,2013-05-04 12:20:00,
2013-05-04 08:30:00,70.5,62.2,29.76,North,-999,0.0,0.0,75,0.00,,,-99.99,FreeWX 2.05,2013-05-04 12:30:00,
2013-05-04 08:40:00,70.7,62.4,29.76,North,-999,0.0,0.0,75,0.00,,,-99.99,FreeWX 2.05,2013-05-04 12:40:00,
2013-05-04 08:50:00,71.1,62.8,29.76,North,-999,0.0,0.0,75,0.00,,,-99.99,FreeWX 2.05,2013-05-04 12:50:00,
2013-05-04 09:00:00,71.4,63.5,29.76,North,-999,0.0,3.6,76,0.00,,,-99.99,FreeWX 2.05,2013-05-04 13:00:00,
2013-05-04 09:10:00,72.0,64.0,29.76,North,-999,0.0,3.1,76,0.00,,,-99.99,FreeWX 2.05,2013-05-04 13:10:00,
2013-05-04 09:20:00,72.3,64.4,29.76,ESE,119,1.0,6.3,76,0.00,,,-99.99,FreeWX 2.05,2013-05-04 13:20:00,
2013-05-04 09:30:00,72.7,64.6,29.76,East,98,3.0,8.3,76,0.00,,,-99.99,FreeWX 2.05,2013-05-04 13:30:00,
2013-05-04 09:40:00,73.4,65.7,29.76,East,97,3.0,9.2,77,0.00,,,-99.99,FreeWX 2.05,2013-05-04 13:40:00,
2013-05-04 09:50:00,73.9,65.8,29.76,ESE,110,2.0,6.7,76,0.00,,,-99.99,FreeWX 2.05,2013-05-04 13:50:00,
2013-05-04 10:00:00,74.3,65.8,29.76,East,90,3.0,9.2,75,0.00,,,-99.99,FreeWX 2.05,2013-05-04 14:00:00,
2013-05-04 10:10:00,74.8,66.4,29.76,ESE,123,2.0,9.2,75,0.00,,,-99.99,FreeWX 2.05,2013-05-04 14:10:00,
2013-05-04 10:20:00,75.4,66.0,29.76,SSE,162,1.0,6.7,73,0.00,,,-99.99,FreeWX 2.05,2013-05-04 14:20:00,
2013-05-04 10:30:00,75.4,64.9,29.79,ESE,114,2.0,8.3,70,0.00,,,-99.99,FreeWX 2.05,2013-05-04 14:30:00,
2013-05-04 10:40:00,75.7,64.8,29.79,East,100,2.0,8.3,69,0.00,,,-99.99,FreeWX 2.05,2013-05-04 14:40:00,
2013-05-04 10:50:00,76.3,64.0,29.76,ESE,117,3.0,9.2,66,0.00,,,-99.99,FreeWX 2.05,2013-05-04 14:50:00,
2013-05-04 11:00:00,76.8,63.7,29.76,SE,125,2.0,7.4,64,0.00,,,-99.99,FreeWX 2.05,2013-05-04 15:00:00,
2013-05-04 11:10:00,77.2,62.2,29.76,East,94,4.0,11.6,60,0.00,,,-99.99,FreeWX 2.05,2013-05-04 15:10:00,
2013-05-04 11:20:00,77.5,59.5,29.79,East,88,3.0,10.1,54,0.00,,,-99.99,FreeWX 2.05,2013-05-04 15:20:00,
2013-05-04 11:30:00,78.1,55.6,29.79,SSE,155,3.0,9.2,46,0.00,,,-99.99,FreeWX 2.05,2013-05-04 15:30:00,
2013-05-04 11:40:00,78.1,53.1,29.79,East,98,4.0,10.5,42,0.00,,,-99.99,FreeWX 2.05,2013-05-04 15:40:00,
2013-05-04 11:50:00,78.4,52.7,29.79,SE,125,3.0,7.4,41,0.00,,,-99.99,FreeWX 2.05,2013-05-04 15:50:00,
2013-05-04 12:00:00,78.3,52.0,29.79,SE,127,3.0,10.1,40,0.00,,,-99.99,FreeWX 2.05,2013-05-04 16:00:00,
2013-05-04 12:10:00,78.8,52.3,29.79,ENE,73,4.0,10.1,40,0.00,,,-99.99,FreeWX 2.05,2013-05-04 16:10:00,
2013-05-04 12:20:00,78.3,52.0,29.79,ESE,111,4.0,11.0,40,0.00,,,-99.99,FreeWX 2.05,2013-05-04 16:20:00,
2013-05-04 12:30:00,78.6,52.3,29.79,East,99,4.0,10.1,40,0.00,,,-99.99,FreeWX 2.05,2013-05-04 16:30:00,
2013-05-04 12:40:00,78.6,52.3,29.79,East,93,4.0,11.6,40,0.00,,,-99.99,FreeWX 2.05,2013-05-04 16:40:00,
2013-05-04 12:50:00,79.2,52.0,29.79,SSE,163,3.0,9.2,39,0.00,,,-99.99,FreeWX 2.05,2013-05-04 16:50:00,
2013-05-04 13:00:00,79.7,52.5,29.76,East,79,4.0,8.3,39,0.00,,,-99.99,FreeWX 2.05,2013-05-04 17:00:00,
2013-05-04 13:10:00,80.1,51.4,29.76,East,87,5.0,12.5,37,0.00,,,-99.99,FreeWX 2.05,2013-05-04 17:10:00,
2013-05-04 13:20:00,80.2,50.9,29.76,ESE,105,4.0,10.5,36,0.00,,,-99.99,FreeWX 2.05,2013-05-04 17:20:00,
2013-05-04 13:30:00,80.4,50.2,29.76,ESE,106,5.0,11.0,35,0.00,,,-99.99,FreeWX 2.05,2013-05-04 17:30:00,
2013-05-04 13:40:00,80.4,50.2,29.76,East,90,4.0,8.7,35,0.00,,,-99.99,FreeWX 2.05,2013-05-04 17:40:00,
2013-05-04 13:50:00,80.4,50.2,29.76,ENE,69,5.0,9.6,35,0.00,,,-99.99,FreeWX 2.05,2013-05-04 17:50:00,
2013-05-04 14:00:00,80.4,49.5,29.76,ENE,78,5.0,11.0,34,0.00,,,-99.99,FreeWX 2.05,2013-05-04 18:00:00,
2013-05-04 14:10:00,80.2,49.3,29.76,East,85,4.0,10.5,34,0.00,,,-99.99,FreeWX 2.05,2013-05-04 18:10:00,
2013-05-04 14:20:00,78.8,48.0,29.76,ENE,67,6.0,10.5,34,0.00,,,-99.99,FreeWX 2.05,2013-05-04 18:20:00,
2013-05-04 14:30:00,77.7,48.6,29.76,East,83,4.0,8.7,36,0.00,,,-99.99,FreeWX 2.05,2013-05-04 18:30:00,
2013-05-04 14:40:00,77.4,49.8,29.76,East,98,4.0,10.5,38,0.00,,,-99.99,FreeWX 2.05,2013-05-04 18:40:00,
2013-05-04 14:50:00,77.2,50.9,29.76,East,101,5.0,12.1,40,0.00,,,-99.99,FreeWX 2.05,2013-05-04 18:50:00,
2013-05-04 15:00:00,77.4,52.5,29.76,East,80,5.0,13.0,42,0.00,,,-99.99,FreeWX 2.05,2013-05-04 19:00:00,
2013-05-04 15:10:00,77.5,52.0,29.76,ENE,71,5.0,11.0,41,0.00,,,-99.99,FreeWX 2.05,2013-05-04 19:10:00,
2013-05-04 15:20:00,77.0,51.4,29.76,East,85,5.0,11.6,41,0.00,,,-99.99,FreeWX 2.05,2013-05-04 19:20:00,
2013-05-04 15:30:00,77.0,51.4,29.76,East,97,6.0,13.9,41,0.00,,,-99.99,FreeWX 2.05,2013-05-04 19:30:00,
2013-05-04 15:40:00,76.8,51.3,29.76,East,85,5.0,11.6,41,0.00,,,-99.99,FreeWX 2.05,2013-05-04 19:40:00,
2013-05-04 15:50:00,76.3,50.9,29.76,East,94,5.0,13.0,41,0.00,,,-99.99,FreeWX 2.05,2013-05-04 19:50:00,
2013-05-04 16:00:00,76.1,51.3,29.76,East,91,3.0,12.1,42,0.00,,,-99.99,FreeWX 2.05,2013-05-04 20:00:00,
2013-05-04 16:10:00,77.0,52.7,29.76,ENE,78,5.0,13.0,43,0.00,,,-99.99,FreeWX 2.05,2013-05-04 20:10:00,
2013-05-04 16:20:00,77.9,53.6,29.76,ENE,67,4.0,10.1,43,0.00,,,-99.99,FreeWX 2.05,2013-05-04 20:20:00,
2013-05-04 16:30:00,78.3,53.2,29.76,East,99,5.0,14.3,42,0.00,,,-99.99,FreeWX 2.05,2013-05-04 20:30:00,
2013-05-04 16:40:00,78.3,53.2,29.76,East,93,5.0,11.6,42,0.00,,,-99.99,FreeWX 2.05,2013-05-04 20:40:00,
2013-05-04 16:51:00,78.3,52.5,29.76,East,85,5.0,10.5,41,0.00,,,-99.99,FreeWX 2.05,2013-05-04 20:51:00,
2013-05-04 17:01:00,78.3,52.5,29.76,ESE,103,4.0,11.0,41,0.00,,,-99.99,FreeWX 2.05,2013-05-04 21:01:00,
2013-05-04 17:11:00,77.7,52.2,29.76,ENE,76,4.0,8.3,41,0.00,,,-99.99,FreeWX 2.05,2013-05-04 21:11:00,
2013-05-04 17:21:00,77.2,51.6,29.76,East,94,3.0,8.3,41,0.00,,,-99.99,FreeWX 2.05,2013-05-04 21:21:00,
2013-05-04 17:31:00,76.8,51.3,29.74,East,80,4.0,9.2,41,0.00,,,-99.99,FreeWX 2.05,2013-05-04 21:31:00,
2013-05-04 17:41:00,76.6,51.8,29.74,ESE,108,3.0,8.3,42,0.00,,,-99.99,FreeWX 2.05,2013-05-04 21:41:00,
2013-05-04 17:51:00,76.6,51.8,29.76,East,90,3.0,7.4,42,0.00,,,-99.99,FreeWX 2.05,2013-05-04 21:51:00,
2013-05-04 18:01:00,76.6,51.8,29.76,East,91,2.0,6.7,42,0.00,,,-99.99,FreeWX 2.05,2013-05-04 22:01:00,
2013-05-04 18:11:00,76.6,52.5,29.76,ESE,105,1.0,6.7,43,0.00,,,-99.99,FreeWX 2.05,2013-05-04 22:11:00,
2013-05-04 18:21:00,76.5,52.3,29.74,SSE,156,1.0,5.4,43,0.00,,,-99.99,FreeWX 2.05,2013-05-04 22:21:00,
2013-05-04 18:31:00,76.5,52.3,29.76,SSE,151,2.0,8.3,43,0.00,,,-99.99,FreeWX 2.05,2013-05-04 22:31:00,
2013-05-04 18:41:00,75.9,52.3,29.76,SE,130,2.0,7.4,44,0.00,,,-99.99,FreeWX 2.05,2013-05-04 22:41:00,
2013-05-04 18:51:00,75.9,52.3,29.76,SSE,163,1.0,5.4,44,0.00,,,-99.99,FreeWX 2.05,2013-05-04 22:51:00,
2013-05-04 19:01:00,75.6,52.2,29.76,SSE,153,2.0,6.9,44,0.00,,,-99.99,FreeWX 2.05,2013-05-04 23:01:00,
2013-05-04 19:11:00,75.6,52.2,29.76,SSE,148,1.0,5.4,44,0.00,,,-99.99,FreeWX 2.05,2013-05-04 23:11:00,
2013-05-04 19:21:00,75.4,52.0,29.76,SE,136,1.0,6.9,44,0.00,,,-99.99,FreeWX 2.05,2013-05-04 23:21:00,
2013-05-04 19:31:00,75.0,51.6,29.76,SE,139,1.0,6.9,44,0.00,,,-99.99,FreeWX 2.05,2013-05-04 23:31:00,
2013-05-04 19:41:00,74.7,52.0,29.76,SE,144,2.0,8.7,45,0.00,,,-99.99,FreeWX 2.05,2013-05-04 23:41:00,
2013-05-04 19:51:00,74.3,52.2,29.76,SSE,158,2.0,7.4,46,0.00,,,-99.99,FreeWX 2.05,2013-05-04 23:51:00,
2013-05-04 20:01:00,74.1,52.5,29.76,SE,139,1.0,8.7,47,0.00,,,-99.99,FreeWX 2.05,2013-05-05 00:01:00,
2013-05-04 20:11:00,74.1,52.5,29.76,SSE,165,1.0,5.8,47,0.00,,,-99.99,FreeWX 2.05,2013-05-05 00:11:00,
2013-05-04 20:21:00,73.8,52.3,29.76,SE,144,1.0,7.4,47,0.00,,,-99.99,FreeWX 2.05,2013-05-05 00:21:00,
2013-05-04 20:31:00,73.6,52.2,29.79,SE,135,1.0,6.7,47,0.00,,,-99.99,FreeWX 2.05,2013-05-05 00:31:00,
2013-05-04 20:41:00,73.6,52.7,29.79,SSE,151,1.0,8.3,48,0.00,,,-99.99,FreeWX 2.05,2013-05-05 00:41:00,
2013-05-04 20:51:00,73.4,52.5,29.79,SE,124,2.0,10.5,48,0.00,,,-99.99,FreeWX 2.05,2013-05-05 00:51:00,
2013-05-04 21:01:00,73.6,53.2,29.79,SE,138,1.0,6.3,49,0.00,,,-99.99,FreeWX 2.05,2013-05-05 01:01:00,
2013-05-04 21:11:00,73.4,53.1,29.79,SSE,155,1.0,8.7,49,0.00,,,-99.99,FreeWX 2.05,2013-05-05 01:11:00,
2013-05-04 21:21:00,73.2,52.9,29.79,SE,138,1.0,6.9,49,0.00,,,-99.99,FreeWX 2.05,2013-05-05 01:21:00,
2013-05-04 21:31:00,73.2,53.4,29.79,SE,129,1.0,9.2,50,0.00,,,-99.99,FreeWX 2.05,2013-05-05 01:31:00,
2013-05-04 21:41:00,72.9,52.5,29.79,SE,128,1.0,8.7,49,0.00,,,-99.99,FreeWX 2.05,2013-05-05 01:41:00,
2013-05-04 21:51:00,72.7,52.9,29.82,SE,127,1.0,8.7,50,0.00,,,-99.99,FreeWX 2.05,2013-05-05 01:51:00,
2013-05-04 22:01:00,72.7,52.9,29.82,SE,137,1.0,6.3,50,0.00,,,-99.99,FreeWX 2.05,2013-05-05 02:01:00,
2013-05-04 22:11:00,72.9,53.1,29.82,ESE,119,2.0,11.2,50,0.00,,,-99.99,FreeWX 2.05,2013-05-05 02:11:00,
2013-05-04 22:21:00,72.9,53.6,29.82,ESE,118,3.0,9.2,51,0.00,,,-99.99,FreeWX 2.05,2013-05-05 02:21:00,
2013-05-04 22:31:00,72.7,54.0,29.82,ESE,120,4.0,10.1,52,0.00,,,-99.99,FreeWX 2.05,2013-05-05 02:31:00,
2013-05-04 22:41:00,72.5,54.3,29.82,ESE,105,2.0,8.3,53,0.00,,,-99.99,FreeWX 2.05,2013-05-05 02:41:00,
2013-05-04 22:51:00,72.1,54.5,29.85,East,99,4.0,11.2,54,0.00,,,-99.99,FreeWX 2.05,2013-05-05 02:51:00,
2013-05-04 23:01:00,72.1,55.0,29.85,East,89,4.0,9.6,55,0.00,,,-99.99,FreeWX 2.05,2013-05-05 03:01:00,
2013-05-04 23:11:00,72.1,55.0,29.85,ESE,120,2.0,9.6,55,0.00,,,-99.99,FreeWX 2.05,2013-05-05 03:11:00,
2013-05-04 23:21:00,71.8,55.2,29.85,SE,134,3.0,9.2,56,0.00,,,-99.99,FreeWX 2.05,2013-05-05 03:21:00,
2013-05-04 23:31:00,71.8,55.2,29.85,ESE,117,4.0,10.1,56,0.00,,,-99.99,FreeWX 2.05,2013-05-05 03:31:00,
2013-05-04 23:41:00,71.6,55.0,29.85,SE,133,4.0,9.2,56,0.00,,,-99.99,FreeWX 2.05,2013-05-05 03:41:00,
2013-05-04 23:51:00,71.4,55.4,29.85,East,98,4.0,9.6,57,0.00,,,-99.99,FreeWX 2.05,2013-05-05 03:51:00,